TNCB/BON METAR and TAF weather

Enter ICAO airport designator
Station Type Date Time Source
TNCB METAR 2022/11/27 08:55 UTC NOAA

TNCB 270855Z AUTO 05009KT 030V090 9999 FEW018/// BKN022/// OVC026/// 26/25 Q1011


Station Type Date Time Source
TNCB Decoded METAR 2022/11/27 08:55 UTC NOAA

Flamingo Airport, Bonaire, Netherlands Antilles (TNCB) 12-09N 068-17W 7M
Nov 27, 2022 - 03:55 AM EST / 2022.11.27 0855 UTC
Wind: from the NE (050 degrees) at 10 MPH (9 KT) (direction variable):0
Visibility: greater than 7 mile(s):0
Sky conditions: overcast
Temperature: 78 F (26 C)
Dew Point: 77 F (25 C)
Relative Humidity: 94%
Pressure (altimeter): 29.85 in. Hg (1011 hPa)
ob: TNCB 270855Z AUTO 05009KT 030V090 9999 FEW018/// BKN022/// OVC026/// 26/25 Q1011
cycle: 9

Station Type Date Time Source
TNCB TAF 2022/11/27 06:27 UTC NOAA

TAF TAF TNCB 270514Z 2706/2812 08012KT 9999 FEW020 PROB40
TEMPO 2706/2718 09015G25KT 3500 SHRA BKN014 SCT016CB PROB40
TEMPO 2804/2812 09015G25KT 3500 SHRA BKN014 SCT016CB

Example: see airport list